Time;durP1;ratioP1;P1;durP2;ratioP2;P2;SDS_P1;SDS_P2;PMS_P1;PMS_P2;Temp;Humidity;BMP_temperature;BMP_pressure;BME280_temperature;BME280_humidity;BME280_pressure;Samples;Min_cycle;Max_cycle;Signal;HPM_P1;HPM_P2
2023/04/01 00:00:55;;;;;;;14.43;13.13;;;10.90;99.90;;;;;;5034563;28;20477;-74
2023/04/01 00:03:26;;;;;;;15.07;13.57;;;10.90;99.90;;;;;;5016482;28;20478;-74
2023/04/01 00:05:55;;;;;;;14.70;13.20;;;10.90;99.90;;;;;;5016672;28;20432;-74
2023/04/01 00:08:24;;;;;;;14.73;13.27;;;10.90;99.90;;;;;;5034202;28;20441;-74
2023/04/01 00:10:52;;;;;;;13.60;12.30;;;10.90;99.90;;;;;;5034130;28;20582;-74
2023/04/01 00:13:21;;;;;;;14.70;13.30;;;10.90;99.90;;;;;;5034733;28;20431;-74
2023/04/01 00:15:49;;;;;;;14.07;12.73;;;10.90;99.90;;;;;;5034233;28;20959;-74
2023/04/01 00:18:17;;;;;;;15.30;13.70;;;10.90;99.90;;;;;;5034034;28;20501;-74
2023/04/01 00:20:48;;;;;;;15.97;14.47;;;10.90;99.90;;;;;;5033579;28;21002;-74
2023/04/01 00:23:17;;;;;;;13.10;11.80;;;10.90;99.90;;;;;;5016096;28;20860;-74
2023/04/01 00:25:47;;;;;;;15.10;13.60;;;10.90;99.90;;;;;;5033892;28;20438;-74
2023/04/01 00:28:15;;;;;;;15.33;13.93;;;10.90;99.90;;;;;;5034074;28;20427;-74
2023/04/01 00:30:44;;;;;;;15.20;13.43;;;10.90;99.90;;;;;;5016046;28;20467;-74
2023/04/01 00:33:12;;;;;;;15.77;14.13;;;10.90;99.90;;;;;;5016113;28;20446;-74
2023/04/01 00:35:41;;;;;;;14.87;13.47;;;10.90;99.90;;;;;;5033898;28;20451;-74
2023/04/01 00:38:11;;;;;;;15.60;14.20;;;10.90;99.90;;;;;;5015917;28;20451;-74
2023/04/01 00:40:42;;;;;;;16.43;14.83;;;10.90;99.90;;;;;;5033559;28;20451;-74
2023/04/01 00:43:13;;;;;;;14.70;13.07;;;10.90;99.90;;;;;;5033477;28;20833;-74
2023/04/01 00:45:43;;;;;;;16.93;15.13;;;10.90;99.90;;;;;;5016007;28;20431;-74
2023/04/01 00:48:17;;;;;;;16.27;14.67;;;10.90;99.90;;;;;;5015890;28;20534;-74
2023/04/01 00:50:49;;;;;;;15.57;14.07;;;10.90;99.90;;;;;;5033986;28;20822;-74
2023/04/01 00:53:21;;;;;;;15.20;13.80;;;10.90;99.90;;;;;;5033831;28;20443;-74
2023/04/01 00:55:53;;;;;;;16.30;14.80;;;10.90;99.90;;;;;;5017279;28;20482;-74
2023/04/01 00:58:24;;;;;;;15.20;13.70;;;10.90;99.90;;;;;;5019659;28;20457;-74
2023/04/01 01:00:54;;;;;;;15.47;14.03;;;10.90;99.90;;;;;;5017122;28;20569;-74
2023/04/01 01:03:22;;;;;;;15.83;14.37;;;10.90;99.90;;;;;;5016275;28;20471;-74
2023/04/01 01:06:07;;;;;;;15.90;14.40;;;10.90;99.90;;;;;;5015885;28;20446;-74
2023/04/01 01:08:53;;;;;;;16.50;15.00;;;10.90;99.90;;;;;;5016425;28;20447;-74
2023/04/01 01:11:28;;;;;;;17.10;15.40;;;10.90;99.90;;;;;;5015694;28;20471;-74
2023/04/01 01:14:19;;;;;;;16.33;14.83;;;10.90;99.90;;;;;;5033672;28;20420;-74
2023/04/01 01:16:56;;;;;;;16.67;14.57;;;10.90;99.90;;;;;;5015489;28;20873;-74
2023/04/01 01:19:50;;;;;;;16.73;15.20;;;10.90;99.90;;;;;;5015719;28;20446;-74
2023/04/01 01:22:36;;;;;;;16.70;15.17;;;10.90;99.90;;;;;;5015536;28;20458;-74
2023/04/01 01:25:31;;;;;;;17.30;15.70;;;10.90;99.90;;;;;;5033498;28;20434;-74
2023/04/01 01:28:16;;;;;;;16.70;15.00;;;10.90;99.90;;;;;;5034230;28;20794;-74
2023/04/01 01:30:51;;;;;;;18.43;16.43;;;10.90;99.90;;;;;;5033481;28;20513;-74
2023/04/01 01:33:51;;;;;;;17.23;15.63;;;10.80;99.90;;;;;;5019640;28;20552;-74
2023/04/01 01:36:22;;;;;;;17.60;15.90;;;10.80;99.90;;;;;;5005229;28;20482;-74
2023/04/01 01:38:51;;;;;;;17.53;15.73;;;10.80;99.90;;;;;;5037322;28;20446;-74
2023/04/01 01:41:22;;;;;;;17.50;15.80;;;10.80;99.90;;;;;;5019304;28;20467;-74
2023/04/01 01:43:54;;;;;;;16.63;15.13;;;10.80;99.90;;;;;;5019302;28;20470;-74
2023/04/01 01:46:26;;;;;;;18.23;16.50;;;10.80;99.90;;;;;;5019320;28;20450;-74
2023/04/01 01:48:56;;;;;;;16.90;15.30;;;10.80;99.90;;;;;;5037081;28;20415;-74
2023/04/01 01:51:28;;;;;;;17.00;15.43;;;10.80;99.90;;;;;;5019109;28;20469;-74
2023/04/01 01:53:56;;;;;;;16.93;15.33;;;10.80;99.90;;;;;;5018069;28;20903;-74
2023/04/01 01:56:28;;;;;;;16.10;14.73;;;10.80;99.90;;;;;;5019175;28;20451;-74
2023/04/01 01:59:01;;;;;;;17.70;15.93;;;10.80;99.90;;;;;;5019614;28;20455;-74
2023/04/01 02:01:32;;;;;;;18.50;16.80;;;10.80;99.90;;;;;;5018912;28;20545;-74
2023/04/01 02:04:10;;;;;;;18.00;16.07;;;10.80;99.90;;;;;;5019856;28;20462;-74
2023/04/01 02:06:46;;;;;;;17.37;15.80;;;10.80;99.90;;;;;;5037133;28;20434;-74
2023/04/01 02:09:15;;;;;;;16.77;15.17;;;10.80;99.90;;;;;;5018797;28;20443;-74
2023/04/01 02:11:48;;;;;;;17.67;16.00;;;10.80;99.90;;;;;;5018625;28;20550;-74
2023/04/01 02:14:18;;;;;;;16.80;15.17;;;10.80;99.90;;;;;;5036450;28;20477;-74
2023/04/01 02:16:52;;;;;;;16.80;15.20;;;10.80;99.90;;;;;;5018598;28;20439;-74
2023/04/01 02:19:24;;;;;;;17.40;15.60;;;10.80;99.90;;;;;;5018610;28;20443;-74
2023/04/01 02:21:57;;;;;;;17.30;15.70;;;10.80;99.90;;;;;;5018399;28;20462;-74
2023/04/01 02:24:29;;;;;;;17.30;15.57;;;10.80;99.90;;;;;;5018382;28;20477;-74
2023/04/01 02:26:57;;;;;;;16.43;14.83;;;10.80;99.90;;;;;;5018440;28;20951;-74
2023/04/01 02:29:26;;;;;;;17.77;16.10;;;10.80;99.90;;;;;;5018294;28;20450;-74
2023/04/01 02:31:55;;;;;;;15.93;14.40;;;10.80;99.90;;;;;;5018226;28;20466;-74
2023/04/01 02:34:25;;;;;;;16.60;15.00;;;10.80;99.90;;;;;;5018303;28;20538;-74
2023/04/01 02:36:57;;;;;;;17.23;15.53;;;10.80;99.90;;;;;;5018141;28;20792;-74
2023/04/01 02:39:26;;;;;;;16.67;15.07;;;10.80;99.90;;;;;;5018249;28;20538;-74
2023/04/01 02:41:54;;;;;;;12.63;11.30;;;10.80;99.90;;;;;;5017488;28;20478;-74
2023/04/01 02:44:23;;;;;;;17.63;16.03;;;10.80;99.90;;;;;;5017976;28;20516;-74
2023/04/01 02:46:52;;;;;;;13.87;12.57;;;10.80;99.90;;;;;;5017881;28;20443;-74
2023/04/01 02:49:20;;;;;;;16.37;14.87;;;10.80;99.90;;;;;;5017929;28;20450;-74
2023/04/01 02:51:48;;;;;;;17.77;16.03;;;10.70;99.90;;;;;;5017783;28;20992;-74
2023/04/01 02:54:18;;;;;;;17.20;15.70;;;10.70;99.90;;;;;;5035507;28;20925;-74
2023/04/01 02:56:46;;;;;;;15.50;14.00;;;10.70;99.90;;;;;;5035511;28;20435;-74
2023/04/01 02:59:14;;;;;;;17.33;15.53;;;10.70;99.90;;;;;;5035596;28;20443;-74
2023/04/01 03:01:42;;;;;;;16.90;15.30;;;10.70;99.90;;;;;;5017800;28;20815;-75
2023/04/01 03:04:10;;;;;;;18.23;16.43;;;10.70;99.90;;;;;;5017818;28;21062;-75
2023/04/01 03:06:38;;;;;;;17.03;15.53;;;10.70;99.90;;;;;;5017749;28;20439;-74
2023/04/01 03:09:07;;;;;;;17.27;15.67;;;10.70;99.90;;;;;;5035486;28;20936;-75
2023/04/01 03:11:36;;;;;;;16.10;14.60;;;10.70;99.90;;;;;;5017540;28;20463;-74
2023/04/01 03:14:04;;;;;;;16.63;14.93;;;10.70;99.90;;;;;;5035541;28;20561;-74
2023/04/01 03:16:32;;;;;;;15.40;13.90;;;10.70;99.90;;;;;;5017465;28;20451;-74
2023/04/01 03:19:02;;;;;;;15.23;13.73;;;10.70;99.90;;;;;;5017304;28;20490;-74
2023/04/01 03:21:30;;;;;;;16.30;14.80;;;10.70;99.90;;;;;;5034959;28;20465;-74
2023/04/01 03:23:58;;;;;;;15.87;14.33;;;10.70;99.90;;;;;;5017177;28;20546;-75
2023/04/01 03:26:27;;;;;;;15.20;13.83;;;10.70;99.90;;;;;;5017306;28;20539;-74
2023/04/01 03:28:57;;;;;;;16.03;14.50;;;10.70;99.90;;;;;;5017242;28;20513;-74
2023/04/01 03:31:25;;;;;;;16.37;14.70;;;10.70;99.90;;;;;;5017055;28;20499;-74
2023/04/01 03:33:56;;;;;;;15.50;14.10;;;10.70;99.90;;;;;;5017050;28;21002;-74
2023/04/01 03:36:25;;;;;;;15.73;14.20;;;10.70;99.90;;;;;;5017269;28;20453;-74
2023/04/01 03:38:53;;;;;;;17.03;14.60;;;10.70;99.90;;;;;;5016978;28;20454;-74
2023/04/01 03:41:31;;;;;;;15.93;14.33;;;10.70;99.90;;;;;;5017479;28;20528;-74
2023/04/01 03:44:01;;;;;;;15.93;14.43;;;10.70;99.90;;;;;;5016840;28;20471;-74
2023/04/01 03:46:29;;;;;;;15.27;13.67;;;10.70;99.90;;;;;;5016882;28;20455;-74
2023/04/01 03:48:58;;;;;;;15.07;13.57;;;10.70;99.90;;;;;;5016768;28;20485;-74
2023/04/01 03:51:26;;;;;;;15.40;14.00;;;10.60;99.90;;;;;;5016585;28;20566;-74
2023/04/01 03:53:55;;;;;;;16.50;15.00;;;10.70;99.90;;;;;;5015700;28;20538;-74
2023/04/01 03:56:23;;;;;;;15.40;14.00;;;10.60;99.90;;;;;;5016568;28;20995;-74
2023/04/01 03:58:51;;;;;;;15.33;13.87;;;10.60;99.90;;;;;;5016521;28;20442;-74
2023/04/01 04:01:22;;;;;;;15.20;13.43;;;10.60;99.90;;;;;;5034091;28;20894;-74
2023/04/01 04:03:54;;;;;;;15.73;14.23;;;10.60;99.90;;;;;;5016474;28;20883;-74
2023/04/01 04:06:24;;;;;;;15.27;13.83;;;10.60;99.90;;;;;;5016473;28;20795;-74
2023/04/01 04:08:53;;;;;;;15.43;13.93;;;10.60;99.90;;;;;;5016494;28;20530;-74
2023/04/01 04:11:22;;;;;;;15.20;13.63;;;10.60;99.90;;;;;;5016399;28;20840;-74
2023/04/01 04:13:52;;;;;;;19.37;17.57;;;10.60;99.90;;;;;;5016421;28;20526;-74
2023/04/01 04:16:24;;;;;;;17.77;15.60;;;10.60;99.90;;;;;;5016293;28;20451;-74
2023/04/01 04:18:59;;;;;;;15.30;14.00;;;10.60;99.90;;;;;;5016316;28;20493;-74
2023/04/01 04:21:27;;;;;;;16.83;15.30;;;10.60;99.90;;;;;;5020488;28;20469;-74
2023/04/01 04:23:56;;;;;;;15.70;14.20;;;10.60;99.90;;;;;;5019127;28;20501;-74
2023/04/01 04:26:24;;;;;;;14.70;13.40;;;10.50;99.90;;;;;;5017564;28;20450;-74
2023/04/01 04:29:01;;;;;;;14.47;13.17;;;10.60;99.90;;;;;;5016667;28;20940;-74
2023/04/01 04:31:32;;;;;;;14.23;12.87;;;10.60;99.90;;;;;;5016214;28;20469;-74
2023/04/01 04:34:02;;;;;;;13.67;12.47;;;10.60;99.90;;;;;;5016906;28;20513;-74
2023/04/01 04:36:34;;;;;;;15.03;13.60;;;10.60;99.90;;;;;;5016284;28;20505;-74
2023/04/01 04:39:03;;;;;;;14.57;13.13;;;10.60;99.90;;;;;;5016004;28;20542;-74
2023/04/01 04:41:33;;;;;;;14.73;13.40;;;10.60;99.90;;;;;;5016063;28;20470;-74
2023/04/01 04:44:04;;;;;;;14.27;12.83;;;10.60;99.90;;;;;;5015954;28;20454;-74
2023/04/01 04:46:34;;;;;;;21.80;19.50;;;10.60;99.90;;;;;;5016062;28;20451;-74
2023/04/01 04:49:11;;;;;;;15.73;13.97;;;10.60;99.90;;;;;;5015953;28;20439;-74
2023/04/01 04:51:40;;;;;;;14.30;12.90;;;10.60;99.90;;;;;;5033735;28;20554;-74
2023/04/01 04:54:08;;;;;;;14.60;13.10;;;10.50;99.90;;;;;;5015807;28;20533;-74
2023/04/01 04:56:55;;;;;;;14.20;12.80;;;10.50;99.90;;;;;;5016254;28;20454;-74
2023/04/01 04:59:25;;;;;;;11.93;10.83;;;10.50;99.90;;;;;;5015773;28;20435;-74
2023/04/01 05:02:17;;;;;;;12.50;11.20;;;10.50;99.90;;;;;;5016479;28;20810;-74
2023/04/01 05:04:46;;;;;;;17.80;12.47;;;10.50;99.90;;;;;;5015491;28;20882;-74
2023/04/01 05:07:14;;;;;;;13.40;12.10;;;10.50;99.90;;;;;;5015616;28;20435;-74
2023/04/01 05:09:42;;;;;;;12.43;11.33;;;10.50;99.90;;;;;;5015587;28;20505;-74
2023/04/01 05:12:12;;;;;;;13.37;12.07;;;10.50;99.90;;;;;;5015522;28;20461;-74
2023/04/01 05:15:01;;;;;;;13.57;11.60;;;10.50;99.90;;;;;;5015891;28;20466;-74
2023/04/01 05:17:31;;;;;;;13.03;11.57;;;10.50;99.90;;;;;;5015457;28;20474;-74
2023/04/01 05:20:00;;;;;;;12.43;11.17;;;10.50;99.90;;;;;;5015963;28;20542;-74
2023/04/01 05:22:30;;;;;;;12.73;11.63;;;10.50;99.90;;;;;;5033289;28;20975;-74
2023/04/01 05:24:58;;;;;;;13.23;11.83;;;10.50;99.90;;;;;;5015433;28;20506;-75
2023/04/01 05:27:26;;;;;;;13.13;11.93;;;10.50;99.90;;;;;;5015665;28;21017;-74
2023/04/01 05:29:54;;;;;;;13.13;11.93;;;10.50;99.90;;;;;;5015467;28;20443;-74
2023/04/01 05:32:40;;;;;;;11.60;10.50;;;10.50;99.90;;;;;;5015398;28;20462;-74
2023/04/01 05:35:09;;;;;;;12.20;11.10;;;10.40;99.90;;;;;;5015287;28;20509;-74
2023/04/01 05:37:37;;;;;;;13.60;12.30;;;10.40;99.90;;;;;;5015357;28;20519;-74
2023/04/01 05:40:07;;;;;;;12.30;11.20;;;10.50;99.90;;;;;;5015557;28;20820;-74
2023/04/01 05:42:35;;;;;;;12.47;11.17;;;10.40;99.90;;;;;;5015240;28;20473;-74
2023/04/01 05:45:06;;;;;;;10.43;9.43;;;10.40;99.90;;;;;;5015214;28;20466;-74
2023/04/01 05:47:56;;;;;;;11.53;10.43;;;10.50;99.90;;;;;;5033213;28;20789;-74
2023/04/01 05:50:24;;;;;;;10.70;9.67;;;10.50;99.90;;;;;;5015149;28;20442;-74
2023/04/01 05:52:53;;;;;;;11.33;9.80;;;10.40;99.90;;;;;;5015232;28;20991;-74
2023/04/01 05:55:22;;;;;;;10.30;9.40;;;10.50;99.90;;;;;;5015835;28;20501;-74
2023/04/01 05:57:51;;;;;;;10.77;9.77;;;10.50;99.90;;;;;;5015424;28;21029;-74
2023/04/01 06:00:20;;;;;;;10.37;9.40;;;10.50;99.90;;;;;;5015060;28;20525;-74
2023/04/01 06:02:49;;;;;;;11.10;9.37;;;10.50;99.90;;;;;;5015647;28;20443;-74
2023/04/01 06:05:21;;;;;;;9.70;8.80;;;10.50;99.90;;;;;;5014958;28;20474;-74
2023/04/01 06:07:51;;;;;;;11.57;10.47;;;10.50;99.90;;;;;;5033104;28;21038;-74
2023/04/01 06:10:22;;;;;;;11.17;9.73;;;10.50;99.90;;;;;;5014997;28;20479;-74
2023/04/01 06:13:03;;;;;;;11.37;10.20;;;10.50;99.90;;;;;;5015024;28;20520;-75
2023/04/01 06:15:39;;;;;;;12.43;11.20;;;10.50;99.90;;;;;;5014938;28;20451;-74
2023/04/01 06:18:39;;;;;;;11.67;10.53;;;10.40;99.90;;;;;;5017519;28;20957;-73
2023/04/01 06:21:23;;;;;;;9.57;8.60;;;10.50;99.90;;;;;;4987218;28;20517;-74
2023/04/01 06:24:12;;;;;;;9.80;8.90;;;10.50;99.90;;;;;;5018393;28;20537;-75
2023/04/01 06:26:47;;;;;;;10.27;9.20;;;10.50;99.90;;;;;;5019123;28;20795;-75
2023/04/01 06:29:32;;;;;;;10.27;9.37;;;10.50;99.90;;;;;;5018314;28;20533;-75
2023/04/01 06:32:17;;;;;;;9.80;8.80;;;10.50;99.90;;;;;;5018210;28;20967;-76
2023/04/01 06:35:02;;;;;;;10.03;9.00;;;10.50;99.90;;;;;;5018142;28;20479;-76
2023/04/01 06:37:55;;;;;;;10.37;9.27;;;10.60;99.90;;;;;;5018543;28;20446;-75
2023/04/01 06:40:43;;;;;;;10.03;9.00;;;10.60;99.90;;;;;;5018066;28;20940;-76
2023/04/01 06:43:20;;;;;;;11.23;10.00;;;10.60;99.90;;;;;;5017989;28;20948;-76
2023/04/01 06:46:14;;;;;;;10.10;9.13;;;10.60;99.90;;;;;;5035960;28;20454;-75
2023/04/01 06:49:18;;;;;;;10.10;9.10;;;10.60;99.90;;;;;;5035896;28;20423;-75
2023/04/01 06:52:16;;;;;;;11.63;10.40;;;10.60;99.90;;;;;;5035328;28;20803;-75
2023/04/01 06:55:18;;;;;;;14.33;13.03;;;10.60;99.90;;;;;;5035851;28;20426;-76
2023/04/01 06:58:19;;;;;;;12.00;10.80;;;10.60;99.90;;;;;;5036057;28;20499;-76
2023/04/01 07:00:51;;;;;;;11.10;9.90;;;10.70;99.90;;;;;;5017695;28;20514;-76
2023/04/01 07:03:24;;;;;;;9.40;8.40;;;10.70;99.90;;;;;;5017655;28;20443;-76
2023/04/01 07:05:55;;;;;;;9.93;9.03;;;10.70;99.90;;;;;;5017492;28;21037;-76
2023/04/01 07:08:28;;;;;;;9.90;8.80;;;10.70;99.90;;;;;;5017942;28;20454;-75
2023/04/01 07:11:03;;;;;;;9.00;8.10;;;10.70;99.90;;;;;;5017433;28;20477;-75
2023/04/01 07:14:11;;;;;;;10.00;9.10;;;10.70;99.90;;;;;;5014088;28;20435;-76
2023/04/01 07:16:45;;;;;;;11.10;8.80;;;10.70;99.90;;;;;;5017826;28;20435;-76
2023/04/01 07:19:21;;;;;;;8.47;7.67;;;10.70;99.90;;;;;;5017591;28;20840;-76
2023/04/01 07:22:06;;;;;;;8.93;7.87;;;10.70;99.90;;;;;;5017868;28;20463;-76
2023/04/01 07:24:57;;;;;;;7.93;7.10;;;10.70;99.90;;;;;;5035124;28;20471;-76
2023/04/01 07:27:27;;;;;;;9.00;7.60;;;10.80;99.90;;;;;;5017373;28;20477;-76
2023/04/01 07:29:57;;;;;;;8.63;7.80;;;10.80;99.90;;;;;;5017507;28;20455;-76
2023/04/01 07:32:36;;;;;;;8.47;7.63;;;10.80;99.90;;;;;;5017192;28;20472;-76
2023/04/01 07:35:16;;;;;;;7.77;7.03;;;10.80;99.90;;;;;;5016996;28;20466;-76
2023/04/01 07:37:57;;;;;;;8.40;6.93;;;10.80;99.90;;;;;;5016941;28;20439;-75
2023/04/01 07:40:33;;;;;;;7.60;6.83;;;10.80;99.90;;;;;;5016887;28;20499;-76
2023/04/01 07:43:18;;;;;;;9.17;7.07;;;10.80;99.90;;;;;;5016904;28;20470;-75
2023/04/01 07:46:00;;;;;;;9.20;8.30;;;10.80;99.90;;;;;;5018718;28;20474;-76
2023/04/01 07:48:36;;;;;;;9.53;8.63;;;10.80;99.90;;;;;;5020892;28;20438;-76
2023/04/01 07:51:11;;;;;;;8.90;6.63;;;10.80;99.90;;;;;;5018596;28;20520;-76
2023/04/01 07:53:47;;;;;;;7.60;6.80;;;10.80;99.90;;;;;;5016981;28;20443;-75
2023/04/01 07:56:22;;;;;;;8.20;7.40;;;10.80;99.90;;;;;;5016713;28;20439;-76
2023/04/01 07:59:01;;;;;;;8.00;7.20;;;10.80;99.90;;;;;;5017007;28;20454;-76
2023/04/01 08:01:56;;;;;;;6.90;6.17;;;10.80;99.90;;;;;;5033844;28;20470;-75
2023/04/01 08:04:35;;;;;;;7.30;6.63;;;10.80;99.90;;;;;;5016594;28;20551;-76
2023/04/01 08:07:10;;;;;;;7.70;7.00;;;10.80;99.90;;;;;;5016458;28;20554;-76
2023/04/01 08:09:54;;;;;;;8.30;7.50;;;10.80;99.90;;;;;;5016756;28;20468;-76
2023/04/01 08:12:54;;;;;;;9.43;8.43;;;10.80;99.90;;;;;;5034750;28;20809;-75
2023/04/01 08:15:53;;;;;;;8.00;7.30;;;10.90;99.90;;;;;;5013190;28;20442;-76
2023/04/01 08:18:40;;;;;;;8.50;7.60;;;10.90;99.90;;;;;;5016377;28;20449;-76
2023/04/01 08:21:14;;;;;;;7.50;6.80;;;10.90;99.90;;;;;;5016360;28;20470;-76
2023/04/01 08:23:47;;;;;;;7.33;6.63;;;11.00;99.90;;;;;;5016402;28;20513;-76
2023/04/01 08:26:24;;;;;;;6.73;6.13;;;11.10;99.90;;;;;;5016127;28;20463;-76
2023/04/01 08:28:56;;;;;;;7.17;6.40;;;11.10;99.90;;;;;;5016217;28;20504;-76
2023/04/01 08:31:34;;;;;;;7.43;6.33;;;11.10;99.90;;;;;;5016200;28;20478;-76
2023/04/01 08:34:05;;;;;;;6.60;6.00;;;11.20;99.90;;;;;;5016068;28;20446;-76
2023/04/01 08:36:38;;;;;;;7.07;6.37;;;11.20;99.90;;;;;;5016040;28;20537;-76
2023/04/01 08:52:42;;;;;;;5.33;4.83;;;11.20;99.90;;;;;;5158215;27;20563;-79
2023/04/01 08:55:43;;;;;;;6.33;5.60;;;11.70;99.90;;;;;;5162514;27;20483;-79
2023/04/01 08:58:59;;;;;;;6.70;5.97;;;11.70;99.90;;;;;;5152349;27;20444;-79
2023/04/01 09:02:00;;;;;;;5.63;5.10;;;11.60;99.90;;;;;;5078726;28;20484;-80
2023/04/01 09:05:06;;;;;;;5.53;5.03;;;11.60;99.90;;;;;;5155820;27;20441;-79
2023/04/01 09:07:44;;;;;;;5.03;4.53;;;11.70;99.90;;;;;;5153328;27;20532;-78
2023/04/01 09:10:50;;;;;;;5.27;4.77;;;11.70;99.90;;;;;;5152183;27;20452;-79
2023/04/01 09:14:05;;;;;;;7.43;5.50;;;11.80;99.90;;;;;;5149394;27;20449;-78
2023/04/01 09:17:02;;;;;;;6.37;4.50;;;11.90;99.90;;;;;;5134650;27;20502;-78
2023/04/01 09:19:43;;;;;;;5.27;4.30;;;11.90;99.90;;;;;;5150919;27;20525;-77
2023/04/01 09:22:28;;;;;;;4.67;3.63;;;12.00;99.90;;;;;;5150795;27;20958;-77
2023/04/01 09:25:34;;;;;;;5.63;3.93;;;12.00;99.90;;;;;;5150909;27;20438;-77
2023/04/01 09:28:16;;;;;;;6.83;4.67;;;12.00;99.90;;;;;;5148845;27;20480;-78
2023/04/01 09:31:18;;;;;;;4.50;4.10;;;12.00;99.90;;;;;;5151379;27;21039;-78
2023/04/01 09:34:26;;;;;;;5.37;4.20;;;12.00;99.90;;;;;;5152844;27;20810;-79
2023/04/01 09:37:19;;;;;;;4.90;3.97;;;12.00;99.90;;;;;;5150600;27;20871;-79
2023/04/01 09:40:09;;;;;;;6.00;4.70;;;12.10;99.90;;;;;;5151095;27;20457;-78
2023/04/01 09:42:46;;;;;;;4.27;3.53;;;12.10;99.90;;;;;;5150711;27;20467;-77
2023/04/01 09:45:47;;;;;;;3.97;3.40;;;12.10;99.90;;;;;;5150414;27;20811;-77
2023/04/01 09:48:39;;;;;;;5.80;4.90;;;12.20;99.90;;;;;;5150700;27;20457;-78
2023/04/01 09:51:23;;;;;;;4.80;4.30;;;12.20;99.90;;;;;;5151021;27;20462;-78
2023/04/01 09:54:08;;;;;;;5.23;4.43;;;12.20;99.90;;;;;;5139636;27;21083;-78
2023/04/01 09:57:28;;;;;;;5.10;4.60;;;12.20;99.90;;;;;;5140018;27;20431;-78
2023/04/01 10:00:28;;;;;;;6.17;5.23;;;12.20;99.90;;;;;;5057862;28;20441;-77
2023/04/01 10:03:54;;;;;;;4.90;4.30;;;12.20;99.90;;;;;;5140026;27;20483;-78
2023/04/01 10:07:10;;;;;;;6.30;5.70;;;12.30;99.90;;;;;;5138423;27;20442;-78
2023/04/01 10:10:29;;;;;;;6.00;5.50;;;12.30;99.90;;;;;;5136414;27;20457;-77
2023/04/01 10:13:36;;;;;;;7.60;4.30;;;12.30;99.90;;;;;;5135834;27;20533;-77
2023/04/01 10:16:26;;;;;;;5.97;4.13;;;12.30;99.90;;;;;;5136187;27;20442;-77
2023/04/01 10:19:20;;;;;;;4.37;3.77;;;12.30;99.90;;;;;;5135888;27;20562;-77
2023/04/01 10:22:16;;;;;;;4.03;2.90;;;12.30;99.90;;;;;;5136847;27;20568;-76
2023/04/01 10:25:28;;;;;;;3.50;3.00;;;12.30;99.90;;;;;;5088094;27;20443;-76
2023/04/01 10:28:35;;;;;;;3.40;2.40;;;12.40;99.90;;;;;;5135625;27;20451;-76
2023/04/01 10:31:57;;;;;;;3.30;1.50;;;12.30;99.90;;;;;;5137018;27;20449;-76
2023/04/01 10:34:56;;;;;;;2.73;1.00;;;12.30;99.90;;;;;;5077385;27;20442;-75
2023/04/01 10:37:45;;;;;;;2.40;0.80;;;12.20;99.90;;;;;;5135513;27;20992;-76
2023/04/01 10:40:48;;;;;;;2.50;0.83;;;12.10;99.90;;;;;;5135427;27;20438;-76
2023/04/01 10:44:12;;;;;;;2.30;0.60;;;12.00;99.90;;;;;;5136556;27;20438;-76
2023/04/01 10:47:06;;;;;;;2.80;1.17;;;11.80;99.90;;;;;;5135154;27;20541;-75
2023/04/01 10:50:15;;;;;;;2.50;0.80;;;11.70;99.90;;;;;;5135161;27;20446;-77
2023/04/01 10:53:11;;;;;;;3.20;1.20;;;11.60;99.90;;;;;;5135337;27;20967;-77
2023/04/01 10:56:25;;;;;;;2.50;0.80;;;11.50;99.90;;;;;;5094878;27;20960;-77
2023/04/01 10:59:43;;;;;;;3.87;1.60;;;11.30;99.90;;;;;;5137383;27;20508;-77
2023/04/01 11:03:31;;;;;;;4.27;1.60;;;11.20;99.90;;;;;;5137963;27;20983;-78
2023/04/01 11:07:04;;;;;;;3.37;1.67;;;11.10;99.90;;;;;;5141479;27;20530;-78
2023/04/01 11:10:16;;;;;;;6.10;1.83;;;11.00;99.90;;;;;;5139076;27;20447;-78
2023/04/01 11:13:28;;;;;;;2.73;1.23;;;10.90;99.90;;;;;;5139016;27;20441;-78
2023/04/01 11:16:37;;;;;;;3.20;1.33;;;10.90;99.90;;;;;;5135630;27;20446;-77
2023/04/01 11:19:46;;;;;;;3.00;1.30;;;10.80;99.90;;;;;;5133450;27;20533;-77
2023/04/01 11:22:37;;;;;;;3.50;2.50;;;10.90;99.90;;;;;;5134599;27;20466;-77
2023/04/01 11:25:30;;;;;;;3.17;1.80;;;10.80;99.90;;;;;;5134714;27;20438;-77
2023/04/01 11:28:41;;;;;;;3.10;1.70;;;10.80;99.90;;;;;;5135915;27;20442;-77
2023/04/01 11:31:35;;;;;;;3.20;1.80;;;10.80;99.90;;;;;;5134876;27;20467;-77
2023/04/01 11:34:14;;;;;;;2.87;1.50;;;10.70;99.90;;;;;;5135510;27;20528;-77
2023/04/01 11:36:56;;;;;;;3.07;2.03;;;10.60;99.90;;;;;;5134898;27;20446;-77
2023/04/01 11:39:36;;;;;;;3.83;2.40;;;10.60;99.90;;;;;;5138015;27;20413;-78
2023/04/01 11:42:39;;;;;;;3.80;2.90;;;10.50;99.90;;;;;;5136220;27;20603;-77
2023/04/01 11:45:37;;;;;;;3.63;2.80;;;10.40;99.90;;;;;;5136750;27;20430;-77
2023/04/01 11:48:41;;;;;;;5.40;4.90;;;10.40;99.90;;;;;;5134950;27;20435;-77
2023/04/01 11:51:43;;;;;;;6.83;6.23;;;10.30;99.90;;;;;;5081626;27;20832;-77
2023/04/01 11:54:24;;;;;;;4.97;3.83;;;10.30;99.90;;;;;;5130828;27;20439;-77
2023/04/01 11:57:06;;;;;;;4.43;3.60;;;10.30;99.90;;;;;;5133911;27;20462;-77
2023/04/01 11:59:57;;;;;;;3.33;2.53;;;10.30;99.90;;;;;;5135331;27;20427;-77
2023/04/01 12:02:35;;;;;;;3.60;2.63;;;10.20;99.90;;;;;;5137570;27;20470;-78
2023/04/01 12:05:34;;;;;;;3.97;2.90;;;10.30;99.90;;;;;;5138735;27;20442;-79
2023/04/01 12:08:16;;;;;;;3.87;2.60;;;10.30;99.90;;;;;;5138929;27;20456;-78
2023/04/01 12:10:54;;;;;;;3.97;2.87;;;10.20;99.90;;;;;;5139563;27;20561;-78
2023/04/01 12:13:34;;;;;;;3.20;2.03;;;10.30;99.90;;;;;;5139677;27;20534;-78
2023/04/01 12:16:14;;;;;;;3.60;2.30;;;10.30;99.90;;;;;;5140183;27;20517;-78
2023/04/01 12:18:53;;;;;;;3.93;2.40;;;10.30;99.90;;;;;;5137660;27;20464;-78
2023/04/01 12:21:27;;;;;;;4.20;2.80;;;10.30;99.90;;;;;;5139886;27;21016;-77
2023/04/01 12:24:26;;;;;;;4.20;2.40;;;10.30;99.90;;;;;;5135765;27;20446;-78
2023/04/01 12:27:03;;;;;;;6.00;2.50;;;10.30;99.90;;;;;;5139080;27;20461;-79
2023/04/01 12:29:55;;;;;;;4.37;2.53;;;10.30;99.90;;;;;;5138139;27;20491;-79
2023/04/01 12:32:34;;;;;;;3.30;2.07;;;10.30;99.90;;;;;;5137943;27;21003;-78
2023/04/01 12:35:21;;;;;;;3.53;2.80;;;10.30;99.90;;;;;;5136909;27;20449;-78
2023/04/01 12:38:06;;;;;;;3.23;2.20;;;10.30;99.90;;;;;;5136741;27;20431;-78
2023/04/01 12:40:51;;;;;;;3.07;1.83;;;10.30;99.90;;;;;;5134276;28;20558;-77
2023/04/01 12:44:01;;;;;;;3.27;2.53;;;10.20;99.90;;;;;;5133054;28;20486;-76
2023/04/01 12:46:37;;;;;;;3.17;2.20;;;10.20;99.90;;;;;;5098452;28;20434;-77
2023/04/01 12:49:30;;;;;;;3.70;2.97;;;10.20;99.90;;;;;;5133737;28;21055;-77
2023/04/01 12:52:12;;;;;;;4.67;3.37;;;10.20;99.90;;;;;;5131868;27;20531;-77
2023/04/01 12:55:11;;;;;;;6.17;3.50;;;10.20;99.90;;;;;;5134553;28;20415;-77
2023/04/01 12:58:08;;;;;;;4.20;3.20;;;10.10;99.90;;;;;;5134458;28;20430;-77
2023/04/01 13:00:57;;;;;;;4.97;2.93;;;10.10;99.90;;;;;;5134466;28;20446;-76
2023/04/01 13:03:45;;;;;;;3.60;2.60;;;10.10;99.90;;;;;;5133000;28;20462;-76
2023/04/01 13:06:34;;;;;;;3.30;2.10;;;10.10;99.90;;;;;;5133030;28;20478;-76
2023/04/01 13:09:18;;;;;;;3.70;1.90;;;10.10;99.90;;;;;;5134370;28;20418;-77
2023/04/01 13:12:04;;;;;;;3.20;1.60;;;10.10;99.90;;;;;;5133117;28;20470;-76
2023/04/01 13:15:21;;;;;;;4.13;1.83;;;10.10;99.90;;;;;;5133105;28;20441;-76
2023/04/01 13:17:54;;;;;;;4.40;2.10;;;10.10;99.90;;;;;;5085903;28;20453;-77
2023/04/01 13:20:35;;;;;;;3.60;2.63;;;10.00;99.90;;;;;;5133048;28;20533;-77
2023/04/01 13:23:14;;;;;;;3.03;1.40;;;10.00;99.90;;;;;;5132993;28;20464;-77
2023/04/01 13:25:52;;;;;;;3.83;1.93;;;10.00;99.90;;;;;;5132983;28;20445;-76
2023/04/01 13:28:41;;;;;;;3.10;1.60;;;9.90;99.90;;;;;;5136439;27;20881;-76
2023/04/01 13:31:20;;;;;;;2.90;1.40;;;9.80;99.90;;;;;;5136857;27;20860;-76
2023/04/01 13:33:58;;;;;;;3.10;1.60;;;9.80;99.90;;;;;;5136764;27;20493;-76
2023/04/01 13:36:37;;;;;;;3.87;1.90;;;9.80;99.90;;;;;;5136635;27;20446;-77
2023/04/01 13:39:30;;;;;;;3.33;1.60;;;9.80;99.90;;;;;;5136635;27;20481;-76
2023/04/01 13:42:15;;;;;;;2.80;1.50;;;9.80;99.90;;;;;;5136484;27;21063;-76
2023/04/01 13:44:47;;;;;;;3.63;1.43;;;9.70;99.90;;;;;;5136397;27;20438;-77
2023/04/01 13:47:55;;;;;;;3.30;1.67;;;9.70;99.90;;;;;;5137148;27;20434;-76
2023/04/01 13:50:50;;;;;;;3.37;1.47;;;9.70;99.90;;;;;;5135982;27;20478;-76
2023/04/01 13:53:47;;;;;;;3.30;1.70;;;9.60;99.90;;;;;;5136352;27;21035;-76
2023/04/01 13:56:34;;;;;;;4.00;2.00;;;9.60;99.90;;;;;;5136293;27;20442;-76
2023/04/01 13:59:27;;;;;;;3.43;1.63;;;9.60;99.90;;;;;;5137145;27;20434;-76
2023/04/01 14:02:08;;;;;;;3.30;1.70;;;9.50;99.90;;;;;;5136009;27;20561;-76
2023/04/01 14:05:04;;;;;;;2.93;1.50;;;9.50;99.90;;;;;;5136041;27;20879;-76